sensor_id;sensor_type;location;lat;lon;timestamp;pressure;altitude;pressure_sealevel;temperature;humidity
10840;BME280;5473;42.706;23.328;2022-12-10T00:02:07;-14565.91;;;-142.93;100.00
10840;BME280;5473;42.706;23.328;2022-12-10T00:04:33;-14565.91;;;-142.93;100.00
10840;BME280;5473;42.706;23.328;2022-12-10T00:07:02;-14565.91;;;-142.93;100.00
10840;BME280;5473;42.706;23.328;2022-12-10T00:09:29;-14565.91;;;-142.93;100.00
10840;BME280;5473;42.706;23.328;2022-12-10T00:11:55;-14565.91;;;-142.93;100.00
10840;BME280;5473;42.706;23.328;2022-12-10T00:14:22;-14565.91;;;-142.93;100.00
10840;BME280;5473;42.706;23.328;2022-12-10T00:16:49;-14565.91;;;-142.93;100.00
10840;BME280;5473;42.706;23.328;2022-12-10T00:19:15;-14565.91;;;-142.93;100.00
10840;BME280;5473;42.706;23.328;2022-12-10T00:21:43;-14565.91;;;-142.93;100.00
10840;BME280;5473;42.706;23.328;2022-12-10T00:24:12;-14565.91;;;-142.93;100.00
10840;BME280;5473;42.706;23.328;2022-12-10T00:26:39;-14565.91;;;-142.93;100.00
10840;BME280;5473;42.706;23.328;2022-12-10T00:29:10;-14565.91;;;-142.93;100.00
10840;BME280;5473;42.706;23.328;2022-12-10T00:31:38;-14565.91;;;-142.93;100.00
10840;BME280;5473;42.706;23.328;2022-12-10T00:34:07;-14565.91;;;-142.93;100.00
10840;BME280;5473;42.706;23.328;2022-12-10T00:36:37;-14565.91;;;-142.93;100.00
10840;BME280;5473;42.706;23.328;2022-12-10T00:39:05;-14565.91;;;-142.93;100.00
10840;BME280;5473;42.706;23.328;2022-12-10T00:41:33;-14565.91;;;-142.93;100.00
10840;BME280;5473;42.706;23.328;2022-12-10T00:44:00;-14565.91;;;-142.93;100.00
10840;BME280;5473;42.706;23.328;2022-12-10T00:46:27;-14565.91;;;-142.93;100.00
10840;BME280;5473;42.706;23.328;2022-12-10T00:48:54;-14565.91;;;-142.93;100.00
10840;BME280;5473;42.706;23.328;2022-12-10T00:51:22;-14565.91;;;-142.93;100.00
10840;BME280;5473;42.706;23.328;2022-12-10T00:53:51;-14565.91;;;-142.93;100.00
10840;BME280;5473;42.706;23.328;2022-12-10T00:56:19;-14565.91;;;-142.93;100.00
10840;BME280;5473;42.706;23.328;2022-12-10T00:58:49;-14565.91;;;-142.93;100.00
10840;BME280;5473;42.706;23.328;2022-12-10T01:01:19;-14565.91;;;-142.93;100.00
10840;BME280;5473;42.706;23.328;2022-12-10T01:03:47;-14565.91;;;-142.93;100.00
10840;BME280;5473;42.706;23.328;2022-12-10T01:06:16;-14565.91;;;-142.93;100.00
10840;BME280;5473;42.706;23.328;2022-12-10T01:08:44;-14565.91;;;-142.93;100.00
10840;BME280;5473;42.706;23.328;2022-12-10T01:11:13;-14565.91;;;-142.93;100.00
10840;BME280;5473;42.706;23.328;2022-12-10T01:13:41;-14565.91;;;-142.93;100.00
10840;BME280;5473;42.706;23.328;2022-12-10T01:16:11;-14565.91;;;-142.93;100.00
10840;BME280;5473;42.706;23.328;2022-12-10T01:18:38;-14565.91;;;-142.93;100.00
10840;BME280;5473;42.706;23.328;2022-12-10T01:21:07;-14565.91;;;-142.93;100.00
10840;BME280;5473;42.706;23.328;2022-12-10T01:23:37;-14565.91;;;-142.93;100.00
10840;BME280;5473;42.706;23.328;2022-12-10T01:26:06;-14565.91;;;-142.93;100.00
10840;BME280;5473;42.706;23.328;2022-12-10T01:28:35;-14565.91;;;-142.93;100.00
10840;BME280;5473;42.706;23.328;2022-12-10T01:31:04;-14565.91;;;-142.93;100.00
10840;BME280;5473;42.706;23.328;2022-12-10T01:33:34;-14565.91;;;-142.93;100.00
10840;BME280;5473;42.706;23.328;2022-12-10T01:36:02;-14565.91;;;-142.93;100.00
10840;BME280;5473;42.706;23.328;2022-12-10T01:38:29;-14565.91;;;-142.93;100.00
10840;BME280;5473;42.706;23.328;2022-12-10T01:40:57;-14565.91;;;-142.93;100.00
10840;BME280;5473;42.706;23.328;2022-12-10T01:43:23;-14565.91;;;-142.93;100.00
10840;BME280;5473;42.706;23.328;2022-12-10T01:45:51;-14565.91;;;-142.93;100.00
10840;BME280;5473;42.706;23.328;2022-12-10T01:51:34;-14565.91;;;-142.93;100.00
10840;BME280;5473;42.706;23.328;2022-12-10T01:54:03;-14565.91;;;-142.93;100.00
10840;BME280;5473;42.706;23.328;2022-12-10T01:56:31;-14565.91;;;-142.93;100.00
10840;BME280;5473;42.706;23.328;2022-12-10T01:59:00;-14565.91;;;-142.93;100.00
10840;BME280;5473;42.706;23.328;2022-12-10T02:01:32;-14565.91;;;-142.93;100.00
10840;BME280;5473;42.706;23.328;2022-12-10T02:04:11;-14565.91;;;-142.93;100.00
10840;BME280;5473;42.706;23.328;2022-12-10T02:06:49;-14565.91;;;-142.93;100.00
10840;BME280;5473;42.706;23.328;2022-12-10T02:09:25;-14565.91;;;-142.93;100.00
10840;BME280;5473;42.706;23.328;2022-12-10T02:12:02;-14565.91;;;-142.93;100.00
10840;BME280;5473;42.706;23.328;2022-12-10T02:14:41;-14565.91;;;-142.93;100.00
10840;BME280;5473;42.706;23.328;2022-12-10T02:17:13;-14565.91;;;-142.93;100.00
10840;BME280;5473;42.706;23.328;2022-12-10T02:19:54;-14565.91;;;-142.93;100.00
10840;BME280;5473;42.706;23.328;2022-12-10T02:22:26;-14565.91;;;-142.93;100.00
10840;BME280;5473;42.706;23.328;2022-12-10T02:24:56;-14565.91;;;-142.93;100.00
10840;BME280;5473;42.706;23.328;2022-12-10T02:27:27;-14565.91;;;-142.93;100.00
10840;BME280;5473;42.706;23.328;2022-12-10T02:29:58;-14565.91;;;-142.93;100.00
10840;BME280;5473;42.706;23.328;2022-12-10T02:32:30;-14565.91;;;-142.93;100.00
10840;BME280;5473;42.706;23.328;2022-12-10T02:35:02;-14565.91;;;-142.93;100.00
10840;BME280;5473;42.706;23.328;2022-12-10T02:37:32;-14565.91;;;-142.93;100.00
10840;BME280;5473;42.706;23.328;2022-12-10T02:40:04;-14565.91;;;-142.93;100.00
10840;BME280;5473;42.706;23.328;2022-12-10T02:42:34;-14565.91;;;-142.93;100.00
10840;BME280;5473;42.706;23.328;2022-12-10T02:45:03;-14565.91;;;-142.93;100.00
10840;BME280;5473;42.706;23.328;2022-12-10T02:47:31;-14565.91;;;-142.93;100.00
10840;BME280;5473;42.706;23.328;2022-12-10T02:49:59;-14565.91;;;-142.93;100.00
10840;BME280;5473;42.706;23.328;2022-12-10T02:52:26;-14565.91;;;-142.93;100.00
10840;BME280;5473;42.706;23.328;2022-12-10T02:54:53;-14565.91;;;-142.93;100.00
10840;BME280;5473;42.706;23.328;2022-12-10T02:57:29;-14565.91;;;-142.93;100.00
10840;BME280;5473;42.706;23.328;2022-12-10T03:00:10;-14565.91;;;-142.93;100.00
10840;BME280;5473;42.706;23.328;2022-12-10T03:02:58;-14565.91;;;-142.93;100.00
10840;BME280;5473;42.706;23.328;2022-12-10T03:05:32;-14565.91;;;-142.93;100.00
10840;BME280;5473;42.706;23.328;2022-12-10T03:08:03;-14565.91;;;-142.93;100.00
10840;BME280;5473;42.706;23.328;2022-12-10T03:10:35;-14565.91;;;-142.93;100.00
10840;BME280;5473;42.706;23.328;2022-12-10T03:13:07;-14565.91;;;-142.93;100.00
10840;BME280;5473;42.706;23.328;2022-12-10T03:15:39;-14565.91;;;-142.93;100.00
10840;BME280;5473;42.706;23.328;2022-12-10T03:18:08;-14565.91;;;-142.93;100.00
10840;BME280;5473;42.706;23.328;2022-12-10T03:20:38;-14565.91;;;-142.93;100.00
10840;BME280;5473;42.706;23.328;2022-12-10T03:23:09;-14565.91;;;-142.93;100.00
10840;BME280;5473;42.706;23.328;2022-12-10T03:25:37;-14565.91;;;-142.93;100.00
10840;BME280;5473;42.706;23.328;2022-12-10T03:28:06;-14565.91;;;-142.93;100.00
10840;BME280;5473;42.706;23.328;2022-12-10T03:30:34;-14565.91;;;-142.93;100.00
10840;BME280;5473;42.706;23.328;2022-12-10T03:33:04;-14565.91;;;-142.93;100.00
10840;BME280;5473;42.706;23.328;2022-12-10T03:35:31;-14565.91;;;-142.93;100.00
10840;BME280;5473;42.706;23.328;2022-12-10T03:37:59;-14565.91;;;-142.93;100.00
10840;BME280;5473;42.706;23.328;2022-12-10T03:40:26;-14565.91;;;-142.93;100.00
10840;BME280;5473;42.706;23.328;2022-12-10T03:42:53;-14565.91;;;-142.93;100.00
10840;BME280;5473;42.706;23.328;2022-12-10T03:45:20;-14565.91;;;-142.93;100.00
10840;BME280;5473;42.706;23.328;2022-12-10T03:47:46;-14565.91;;;-142.93;100.00
10840;BME280;5473;42.706;23.328;2022-12-10T03:50:16;-14565.91;;;-142.93;100.00
10840;BME280;5473;42.706;23.328;2022-12-10T03:52:43;-14565.91;;;-142.93;100.00
10840;BME280;5473;42.706;23.328;2022-12-10T03:55:09;-14565.91;;;-142.93;100.00
10840;BME280;5473;42.706;23.328;2022-12-10T03:57:36;-14565.91;;;-142.93;100.00
10840;BME280;5473;42.706;23.328;2022-12-10T04:00:04;-14565.91;;;-142.93;100.00
10840;BME280;5473;42.706;23.328;2022-12-10T04:02:31;-14565.91;;;-142.93;100.00
10840;BME280;5473;42.706;23.328;2022-12-10T04:04:58;-14565.91;;;-142.93;100.00
10840;BME280;5473;42.706;23.328;2022-12-10T04:07:26;-14565.91;;;-142.93;99.97
10840;BME280;5473;42.706;23.328;2022-12-10T04:09:53;-14565.91;;;-142.93;99.19
10840;BME280;5473;42.706;23.328;2022-12-10T04:12:20;-14565.91;;;-142.93;98.35
10840;BME280;5473;42.706;23.328;2022-12-10T04:14:47;-14565.91;;;-142.93;97.14
10840;BME280;5473;42.706;23.328;2022-12-10T04:17:31;-14565.91;;;-142.93;96.35
10840;BME280;5473;42.706;23.328;2022-12-10T04:19:58;-14565.91;;;-142.93;95.41
10840;BME280;5473;42.706;23.328;2022-12-10T04:22:27;-14565.91;;;-142.93;94.46
10840;BME280;5473;42.706;23.328;2022-12-10T04:25:11;-14565.91;;;-142.93;93.01
10840;BME280;5473;42.706;23.328;2022-12-10T04:27:56;-14565.91;;;-142.93;91.99
10840;BME280;5473;42.706;23.328;2022-12-10T04:30:23;-14565.91;;;-142.93;90.72
10840;BME280;5473;42.706;23.328;2022-12-10T04:32:50;-14565.91;;;-142.93;89.84
10840;BME280;5473;42.706;23.328;2022-12-10T04:35:17;-14565.91;;;-142.93;89.50
10840;BME280;5473;42.706;23.328;2022-12-10T04:37:45;-14565.91;;;-142.93;88.97
10840;BME280;5473;42.706;23.328;2022-12-10T04:40:12;-14565.91;;;-142.93;88.25
10840;BME280;5473;42.706;23.328;2022-12-10T04:42:39;-14565.91;;;-142.93;87.22
10840;BME280;5473;42.706;23.328;2022-12-10T04:45:07;-14565.91;;;-142.93;86.37
10840;BME280;5473;42.706;23.328;2022-12-10T04:47:33;-14565.91;;;-142.93;85.49
10840;BME280;5473;42.706;23.328;2022-12-10T04:50:00;-14565.91;;;-142.93;84.59
10840;BME280;5473;42.706;23.328;2022-12-10T04:52:27;-14565.91;;;-142.93;84.01
10840;BME280;5473;42.706;23.328;2022-12-10T04:54:55;-14565.91;;;-142.93;83.23
10840;BME280;5473;42.706;23.328;2022-12-10T04:57:22;-14565.91;;;-142.93;82.44
10840;BME280;5473;42.706;23.328;2022-12-10T04:59:48;-14565.91;;;-142.93;81.35
10840;BME280;5473;42.706;23.328;2022-12-10T05:02:15;-14565.91;;;-142.93;80.09
10840;BME280;5473;42.706;23.328;2022-12-10T05:04:42;-14565.91;;;-142.93;79.10
10840;BME280;5473;42.706;23.328;2022-12-10T05:07:09;-14565.91;;;-142.93;77.87
10840;BME280;5473;42.706;23.328;2022-12-10T05:09:35;-14565.91;;;-142.93;75.95
10840;BME280;5473;42.706;23.328;2022-12-10T05:12:05;-14565.91;;;-142.93;74.10
10840;BME280;5473;42.706;23.328;2022-12-10T05:14:32;-14565.91;;;-142.93;72.41
10840;BME280;5473;42.706;23.328;2022-12-10T05:16:59;-14565.91;;;-142.93;70.47
10840;BME280;5473;42.706;23.328;2022-12-10T05:19:25;-14565.91;;;-142.93;68.13
10840;BME280;5473;42.706;23.328;2022-12-10T05:21:52;-14565.91;;;-142.93;65.61
10840;BME280;5473;42.706;23.328;2022-12-10T05:24:37;-14565.91;;;-142.93;62.72
10840;BME280;5473;42.706;23.328;2022-12-10T05:27:05;-14565.91;;;-142.93;61.02
10840;BME280;5473;42.706;23.328;2022-12-10T05:29:33;-14565.91;;;-142.93;59.08
10840;BME280;5473;42.706;23.328;2022-12-10T05:32:00;-14565.91;;;-142.93;57.33
10840;BME280;5473;42.706;23.328;2022-12-10T05:34:27;-14565.91;;;-142.93;55.59
10840;BME280;5473;42.706;23.328;2022-12-10T05:36:54;-14565.91;;;-142.93;54.16
10840;BME280;5473;42.706;23.328;2022-12-10T05:39:20;-14565.91;;;-142.93;52.99
10840;BME280;5473;42.706;23.328;2022-12-10T05:41:47;-14565.91;;;-142.93;51.91
10840;BME280;5473;42.706;23.328;2022-12-10T05:44:15;-14565.91;;;-142.93;51.12
10840;BME280;5473;42.706;23.328;2022-12-10T05:46:42;-14565.91;;;-142.93;50.62
10840;BME280;5473;42.706;23.328;2022-12-10T05:49:09;-14565.91;;;-142.93;50.18
10840;BME280;5473;42.706;23.328;2022-12-10T05:51:37;-14565.91;;;-142.93;49.77
10840;BME280;5473;42.706;23.328;2022-12-10T05:54:04;-14565.91;;;-142.93;49.25
10840;BME280;5473;42.706;23.328;2022-12-10T05:56:32;-14565.91;;;-142.93;48.64
10840;BME280;5473;42.706;23.328;2022-12-10T05:59:00;-14565.91;;;-142.93;48.21
10840;BME280;5473;42.706;23.328;2022-12-10T06:01:30;-14565.91;;;-142.93;47.99
10840;BME280;5473;42.706;23.328;2022-12-10T06:03:58;-14565.91;;;-142.93;47.62
10840;BME280;5473;42.706;23.328;2022-12-10T06:06:27;-14565.91;;;-142.93;47.05
10840;BME280;5473;42.706;23.328;2022-12-10T06:08:55;-14565.91;;;-142.93;46.75
10840;BME280;5473;42.706;23.328;2022-12-10T06:11:22;-14565.91;;;-142.93;46.39
10840;BME280;5473;42.706;23.328;2022-12-10T06:13:50;-14565.91;;;-142.93;46.07
10840;BME280;5473;42.706;23.328;2022-12-10T06:16:16;-14565.91;;;-142.93;45.75
10840;BME280;5473;42.706;23.328;2022-12-10T06:18:44;-14565.91;;;-142.93;45.73
10840;BME280;5473;42.706;23.328;2022-12-10T06:21:13;-14565.91;;;-142.93;45.50
10840;BME280;5473;42.706;23.328;2022-12-10T06:23:41;-14565.91;;;-142.93;45.59
10840;BME280;5473;42.706;23.328;2022-12-10T06:26:10;-14565.91;;;-142.93;45.58
10840;BME280;5473;42.706;23.328;2022-12-10T06:28:38;-14565.91;;;-142.93;45.62
10840;BME280;5473;42.706;23.328;2022-12-10T06:31:05;-14565.91;;;-142.93;45.77
10840;BME280;5473;42.706;23.328;2022-12-10T06:33:32;-14565.91;;;-142.93;45.80
10840;BME280;5473;42.706;23.328;2022-12-10T06:36:03;-14565.91;;;-142.93;46.00
10840;BME280;5473;42.706;23.328;2022-12-10T06:38:30;-14565.91;;;-142.93;46.34
10840;BME280;5473;42.706;23.328;2022-12-10T06:40:57;-14565.91;;;-142.93;46.84
10840;BME280;5473;42.706;23.328;2022-12-10T06:43:24;-14565.91;;;-142.93;47.25
10840;BME280;5473;42.706;23.328;2022-12-10T06:45:50;-14565.91;;;-142.93;47.73
10840;BME280;5473;42.706;23.328;2022-12-10T06:48:17;-14565.91;;;-142.93;48.22
10840;BME280;5473;42.706;23.328;2022-12-10T06:50:44;-14565.91;;;-142.93;48.76
10840;BME280;5473;42.706;23.328;2022-12-10T06:53:12;-14565.91;;;-142.93;49.34
10840;BME280;5473;42.706;23.328;2022-12-10T06:55:39;-14565.91;;;-142.93;49.88
10840;BME280;5473;42.706;23.328;2022-12-10T06:58:05;-14565.91;;;-142.93;50.15
10840;BME280;5473;42.706;23.328;2022-12-10T07:00:32;-14565.91;;;-142.93;50.44
10840;BME280;5473;42.706;23.328;2022-12-10T07:02:59;-14565.91;;;-142.93;50.83
10840;BME280;5473;42.706;23.328;2022-12-10T07:05:26;-14565.91;;;-142.93;51.08
10840;BME280;5473;42.706;23.328;2022-12-10T07:07:52;-14565.91;;;-142.93;51.61
10840;BME280;5473;42.706;23.328;2022-12-10T07:10:22;-14565.91;;;-142.93;52.19
10840;BME280;5473;42.706;23.328;2022-12-10T07:12:48;-14565.91;;;-142.93;52.68
10840;BME280;5473;42.706;23.328;2022-12-10T07:15:15;-14565.91;;;-142.93;52.94
10840;BME280;5473;42.706;23.328;2022-12-10T07:17:42;-14565.91;;;-142.93;53.20
10840;BME280;5473;42.706;23.328;2022-12-10T07:20:10;-14565.91;;;-142.93;53.44
10840;BME280;5473;42.706;23.328;2022-12-10T07:22:37;-14565.91;;;-142.93;54.17
10840;BME280;5473;42.706;23.328;2022-12-10T07:25:04;-14565.91;;;-142.93;54.98
10840;BME280;5473;42.706;23.328;2022-12-10T07:27:32;-14565.91;;;-142.93;55.82
10840;BME280;5473;42.706;23.328;2022-12-10T07:29:59;-14565.91;;;-142.93;56.44
10840;BME280;5473;42.706;23.328;2022-12-10T07:32:26;-14565.91;;;-142.93;56.97
10840;BME280;5473;42.706;23.328;2022-12-10T07:34:53;-14565.91;;;-142.93;57.64
10840;BME280;5473;42.706;23.328;2022-12-10T07:37:20;-14565.91;;;-142.93;58.44
10840;BME280;5473;42.706;23.328;2022-12-10T07:39:47;-14565.91;;;-142.93;59.31
10840;BME280;5473;42.706;23.328;2022-12-10T07:42:13;-14565.91;;;-142.93;60.21
10840;BME280;5473;42.706;23.328;2022-12-10T07:44:41;-14565.91;;;-142.93;61.21
10840;BME280;5473;42.706;23.328;2022-12-10T07:47:08;-14565.91;;;-142.93;62.46
10840;BME280;5473;42.706;23.328;2022-12-10T07:49:35;-14565.91;;;-142.93;63.33
10840;BME280;5473;42.706;23.328;2022-12-10T07:52:02;-14565.91;;;-142.93;63.46
10840;BME280;5473;42.706;23.328;2022-12-10T07:54:29;-14565.91;;;-142.93;64.39
10840;BME280;5473;42.706;23.328;2022-12-10T07:56:55;-14565.91;;;-142.93;64.72
10840;BME280;5473;42.706;23.328;2022-12-10T07:59:22;-14565.91;;;-142.93;64.68
10840;BME280;5473;42.706;23.328;2022-12-10T08:01:50;-14565.91;;;-142.93;65.95
10840;BME280;5473;42.706;23.328;2022-12-10T08:04:17;-14565.91;;;-142.93;67.96
10840;BME280;5473;42.706;23.328;2022-12-10T08:06:44;-14565.91;;;-142.93;70.20
10840;BME280;5473;42.706;23.328;2022-12-10T08:09:11;-14565.91;;;-142.93;71.85
10840;BME280;5473;42.706;23.328;2022-12-10T08:11:38;-14565.91;;;-142.93;73.88
10840;BME280;5473;42.706;23.328;2022-12-10T08:14:05;-14565.91;;;-142.93;75.88
10840;BME280;5473;42.706;23.328;2022-12-10T08:16:31;-14565.91;;;-142.93;76.67
10840;BME280;5473;42.706;23.328;2022-12-10T08:19:00;-14565.91;;;-142.93;76.98
10840;BME280;5473;42.706;23.328;2022-12-10T08:21:29;-14565.91;;;-142.93;78.41
10840;BME280;5473;42.706;23.328;2022-12-10T08:23:57;-14565.91;;;-142.93;80.00
10840;BME280;5473;42.706;23.328;2022-12-10T08:26:25;-14565.91;;;-142.93;81.79
10840;BME280;5473;42.706;23.328;2022-12-10T08:28:53;-14565.91;;;-142.93;82.80
10840;BME280;5473;42.706;23.328;2022-12-10T08:31:22;-14565.91;;;-142.93;83.73
10840;BME280;5473;42.706;23.328;2022-12-10T08:33:49;-14565.91;;;-142.93;84.97
10840;BME280;5473;42.706;23.328;2022-12-10T08:36:18;-14565.91;;;-142.93;85.32
10840;BME280;5473;42.706;23.328;2022-12-10T08:38:45;-14565.91;;;-142.93;85.12
10840;BME280;5473;42.706;23.328;2022-12-10T08:41:14;-14565.91;;;-142.93;87.11
10840;BME280;5473;42.706;23.328;2022-12-10T08:43:42;-14565.91;;;-142.93;90.38
10840;BME280;5473;42.706;23.328;2022-12-10T08:46:10;-14565.91;;;-142.93;92.10
10840;BME280;5473;42.706;23.328;2022-12-10T08:48:38;-14565.91;;;-142.93;93.84
10840;BME280;5473;42.706;23.328;2022-12-10T08:51:06;-14565.91;;;-142.93;96.33
10840;BME280;5473;42.706;23.328;2022-12-10T08:53:35;-14565.91;;;-142.93;99.16
10840;BME280;5473;42.706;23.328;2022-12-10T08:56:02;-14565.91;;;-142.93;100.00
10840;BME280;5473;42.706;23.328;2022-12-10T08:58:29;-14565.91;;;-142.93;100.00
10840;BME280;5473;42.706;23.328;2022-12-10T09:00:55;-14565.91;;;-142.93;100.00
10840;BME280;5473;42.706;23.328;2022-12-10T09:03:22;-14565.91;;;-142.93;100.00
10840;BME280;5473;42.706;23.328;2022-12-10T09:05:50;-14565.91;;;-142.93;100.00
10840;BME280;5473;42.706;23.328;2022-12-10T09:08:16;-14565.91;;;-142.93;100.00
10840;BME280;5473;42.706;23.328;2022-12-10T09:10:44;-14565.91;;;-142.93;100.00
10840;BME280;5473;42.706;23.328;2022-12-10T09:13:11;-14565.91;;;-142.93;100.00
10840;BME280;5473;42.706;23.328;2022-12-10T09:15:38;-14565.91;;;-142.93;100.00
10840;BME280;5473;42.706;23.328;2022-12-10T09:18:05;-14565.91;;;-142.93;100.00
10840;BME280;5473;42.706;23.328;2022-12-10T09:20:32;-14565.91;;;-142.93;100.00
10840;BME280;5473;42.706;23.328;2022-12-10T09:22:59;-14565.91;;;-142.93;100.00
10840;BME280;5473;42.706;23.328;2022-12-10T09:25:26;-14565.91;;;-142.93;100.00
10840;BME280;5473;42.706;23.328;2022-12-10T09:27:54;-14565.91;;;-142.93;100.00
10840;BME280;5473;42.706;23.328;2022-12-10T09:30:21;-14565.91;;;-142.93;100.00
10840;BME280;5473;42.706;23.328;2022-12-10T09:32:47;-14565.91;;;-142.93;100.00
10840;BME280;5473;42.706;23.328;2022-12-10T09:35:14;-14565.91;;;-142.93;100.00
10840;BME280;5473;42.706;23.328;2022-12-10T09:37:41;-14565.91;;;-142.93;100.00
10840;BME280;5473;42.706;23.328;2022-12-10T09:40:10;-14565.91;;;-142.93;100.00
10840;BME280;5473;42.706;23.328;2022-12-10T09:42:45;-14565.91;;;-142.93;100.00
10840;BME280;5473;42.706;23.328;2022-12-10T09:45:18;-14565.91;;;-142.93;100.00
10840;BME280;5473;42.706;23.328;2022-12-10T09:47:55;-14565.91;;;-142.93;100.00
10840;BME280;5473;42.706;23.328;2022-12-10T09:50:28;-14565.91;;;-142.93;100.00
10840;BME280;5473;42.706;23.328;2022-12-10T09:52:57;-14565.91;;;-142.93;100.00
10840;BME280;5473;42.706;23.328;2022-12-10T09:55:33;-14565.91;;;-142.93;100.00
10840;BME280;5473;42.706;23.328;2022-12-10T09:58:02;-14565.91;;;-142.93;100.00
10840;BME280;5473;42.706;23.328;2022-12-10T10:00:35;-14565.91;;;-142.93;100.00
10840;BME280;5473;42.706;23.328;2022-12-10T10:03:03;-14565.91;;;-142.93;100.00
10840;BME280;5473;42.706;23.328;2022-12-10T10:05:34;-14564.44;;;-142.93;100.00
10840;BME280;5473;42.706;23.328;2022-12-10T10:08:04;-14313.72;;;-142.93;100.00
10840;BME280;5473;42.706;23.328;2022-12-10T10:10:34;-13812.22;;;-142.93;100.00
10840;BME280;5473;42.706;23.328;2022-12-10T10:13:13;-12558.09;;;-142.93;100.00
10840;BME280;5473;42.706;23.328;2022-12-10T10:15:44;-12558.09;;;-142.93;100.00
10840;BME280;5473;42.706;23.328;2022-12-10T10:18:17;-11805.41;;;-142.93;100.00
10840;BME280;5473;42.706;23.328;2022-12-10T10:20:45;-12307.22;;;-142.93;100.00
10840;BME280;5473;42.706;23.328;2022-12-10T10:23:14;-12056.34;;;-142.93;100.00
10840;BME280;5473;42.706;23.328;2022-12-10T10:25:41;-12808.97;;;-142.93;100.00
10840;BME280;5473;42.706;23.328;2022-12-10T10:28:11;-13310.63;;;-142.93;100.00
10840;BME280;5473;42.706;23.328;2022-12-10T10:30:41;-13310.63;;;-142.93;100.00
10840;BME280;5473;42.706;23.328;2022-12-10T10:33:11;-12808.97;;;-142.93;100.00
10840;BME280;5473;42.706;23.328;2022-12-10T10:35:44;-13059.81;;;-142.93;100.00
10840;BME280;5473;42.706;23.328;2022-12-10T10:38:18;-13059.81;;;-142.93;100.00
10840;BME280;5473;42.706;23.328;2022-12-10T10:40:49;-13561.44;;;-142.93;100.00
10840;BME280;5473;42.706;23.328;2022-12-10T10:43:20;-13561.44;;;-142.93;100.00
10840;BME280;5473;42.706;23.328;2022-12-10T10:45:50;-13812.22;;;-142.93;100.00
10840;BME280;5473;42.706;23.328;2022-12-10T10:48:21;-13561.44;;;-142.93;100.00
10840;BME280;5473;42.706;23.328;2022-12-10T10:50:50;-13059.81;;;-142.93;100.00
10840;BME280;5473;42.706;23.328;2022-12-10T10:53:29;-12558.09;;;-142.93;100.00
10840;BME280;5473;42.706;23.328;2022-12-10T10:55:59;-12558.09;;;-142.93;100.00
10840;BME280;5473;42.706;23.328;2022-12-10T10:58:27;-13310.63;;;-142.93;100.00
10840;BME280;5473;42.706;23.328;2022-12-10T11:00:56;-13561.44;;;-142.93;100.00
10840;BME280;5473;42.706;23.328;2022-12-10T11:03:25;-12558.09;;;-142.93;100.00
10840;BME280;5473;42.706;23.328;2022-12-10T11:05:53;-12307.22;;;-142.93;100.00
10840;BME280;5473;42.706;23.328;2022-12-10T11:08:20;-12307.22;;;-142.93;100.00
10840;BME280;5473;42.706;23.328;2022-12-10T11:10:48;-13059.81;;;-142.93;100.00
10840;BME280;5473;42.706;23.328;2022-12-10T11:13:22;-13561.44;;;-142.93;100.00
10840;BME280;5473;42.706;23.328;2022-12-10T11:15:55;-14062.97;;;-142.93;100.00
10840;BME280;5473;42.706;23.328;2022-12-10T11:18:29;-14062.97;;;-142.93;100.00
10840;BME280;5473;42.706;23.328;2022-12-10T11:20:59;-14062.97;;;-142.93;100.00
10840;BME280;5473;42.706;23.328;2022-12-10T11:23:28;-13812.22;;;-142.93;100.00
10840;BME280;5473;42.706;23.328;2022-12-10T11:26:11;-13812.22;;;-142.93;100.00
10840;BME280;5473;42.706;23.328;2022-12-10T11:28:50;-14313.72;;;-142.93;100.00
10840;BME280;5473;42.706;23.328;2022-12-10T11:31:35;-14313.72;;;-142.93;100.00
10840;BME280;5473;42.706;23.328;2022-12-10T11:34:15;-14313.72;;;-142.93;100.00
10840;BME280;5473;42.706;23.328;2022-12-10T11:36:52;-14062.97;;;-142.93;100.00
10840;BME280;5473;42.706;23.328;2022-12-10T11:39:34;-14062.97;;;-142.93;100.00
10840;BME280;5473;42.706;23.328;2022-12-10T11:42:15;-14313.72;;;-142.93;100.00
10840;BME280;5473;42.706;23.328;2022-12-10T11:44:50;-14313.72;;;-142.93;100.00
10840;BME280;5473;42.706;23.328;2022-12-10T11:47:29;-14313.72;;;-142.93;100.00
10840;BME280;5473;42.706;23.328;2022-12-10T11:50:13;-14062.97;;;-142.93;100.00
10840;BME280;5473;42.706;23.328;2022-12-10T11:52:53;-14313.72;;;-142.93;100.00
10840;BME280;5473;42.706;23.328;2022-12-10T11:55:32;-14564.44;;;-142.93;100.00
10840;BME280;5473;42.706;23.328;2022-12-10T11:58:16;-14313.72;;;-142.93;100.00
10840;BME280;5473;42.706;23.328;2022-12-10T12:00:52;-13812.22;;;-142.93;100.00
10840;BME280;5473;42.706;23.328;2022-12-10T12:03:49;-13812.22;;;-142.93;100.00
10840;BME280;5473;42.706;23.328;2022-12-10T12:06:34;-13812.22;;;-142.93;100.00
10840;BME280;5473;42.706;23.328;2022-12-10T12:09:13;-14062.97;;;-142.93;100.00
10840;BME280;5473;42.706;23.328;2022-12-10T12:11:55;-14313.72;;;-142.93;100.00
10840;BME280;5473;42.706;23.328;2022-12-10T12:14:29;-14564.44;;;-142.93;100.00
10840;BME280;5473;42.706;23.328;2022-12-10T12:17:03;-14564.44;;;-142.93;100.00
10840;BME280;5473;42.706;23.328;2022-12-10T12:19:34;-14564.44;;;-142.93;100.00
10840;BME280;5473;42.706;23.328;2022-12-10T12:22:10;-14564.44;;;-142.93;100.00
10840;BME280;5473;42.706;23.328;2022-12-10T12:24:41;-14564.44;;;-142.93;100.00
10840;BME280;5473;42.706;23.328;2022-12-10T12:27:16;-14564.44;;;-142.93;100.00
10840;BME280;5473;42.706;23.328;2022-12-10T12:29:53;-14564.44;;;-142.93;100.00
10840;BME280;5473;42.706;23.328;2022-12-10T12:32:25;-14564.44;;;-142.93;100.00
10840;BME280;5473;42.706;23.328;2022-12-10T12:34:56;-14565.91;;;-142.93;100.00
10840;BME280;5473;42.706;23.328;2022-12-10T12:37:29;-14565.91;;;-142.93;100.00
10840;BME280;5473;42.706;23.328;2022-12-10T12:40:03;-14565.91;;;-142.93;100.00